Fairfield, TX

3:05 AM CDT on March 29, 2017 (GMT -0500)
Sam's Restaurant | | Change Station

Elev 474 ft 31.73 °N, 96.15 °W | Updated 4 seconds ago

Overcast
Overcast
72.0 °F
Feels Like 71 °F
N
0.0
Wind Variable Wind from SSW
Gusts 2.0 mph

Today
High -- | Low -- °F
--% Chance of Precip.
Yesterday
High -- | Low -- °F
Precip. -- in
Pressure 29.74 in
Visibility 10.0 miles
Clouds Mostly Cloudy 2500 ft
Overcast 3200 ft
Heat Index 71 °F
Dew Point 68 °F
Humidity 86%
Rainfall 0.00 in
Snow Depth Not available.
7:16 AM 7:42 PM
New Moon, 2% visible
METAR KLXY 290755Z AUTO 19016G21KT 10SM RA BKN025 OVC032 21/19 A2974 RMK AO2 LTG DSNT W THRU N P0002 T02130189
Pressure 29.74 in
Visibility 10.0 miles
Clouds Mostly Cloudy 2500 ft
Overcast 3200 ft
Heat Index 71 °F
Dew Point 68 °F
Humidity 86%
Rainfall 0.00 in
Snow Depth Not available.
7:16 AM 7:42 PM
New Moon, 2% visible
METAR KLXY 290755Z AUTO 19016G21KT 10SM RA BKN025 OVC032 21/19 A2974 RMK AO2 LTG DSNT W THRU N P0002 T02130189

Get Severe Weather Alerts

Thanks for signing up!

Be on the lookout for a verification email in your inbox.

You'll start receiving the daily forecast at 8 AM.

×

10-Day Weather Forecast

Almanac

Astronomy

Mar. 29, 2017 Rise Set
Actual Time
Civil Twilight
Nautical Twilight
Astronomical Twilight
Moon
Length of Visible Light
Length of Day
Tomorrow will be .
, % of the Moon is Illuminated

Today's Extremes

State Highs State Lows

Community

WunderPhotos

Upload Photos

1,962,540 photos uploaded!

WunderBlog® & News

Nearby

Air Quality

  Air Quality AQ Index Pollutant
Not available.

Snow Depth

Station Depth Elevation

Earthquake Activity

City Distance Mag. Time & Date
Minimum magnitude displayed is 2.5.

Earthquake Activity

City Distance Mag. Time & Date
Minimum magnitude displayed is 2.5.

Coastal Water Temperatures

Place Temperature

Stations

Nearby Weather Stations

Station Location Temp. Windchill Dew Point Humidity Wind Precip. Elev Updated Type
                   

Watches & Warnings

There are currently no watches in effect.